createdAt,value
2015-12-17T00:00:11.498Z,74340
2015-12-17T00:00:23.904Z,74347
2015-12-17T00:00:36.279Z,74343
2015-12-17T00:00:48.671Z,74340
2015-12-17T00:01:01.046Z,74342
2015-12-17T00:01:13.421Z,74337
2015-12-17T00:01:25.109Z,74339
2015-12-17T00:01:37.500Z,74340
2015-12-17T00:01:49.846Z,74343
2015-12-17T00:02:01.503Z,74343
2015-12-17T00:02:13.862Z,74340
2015-12-17T00:02:26.221Z,74341
2015-12-17T00:02:38.581Z,74343
2015-12-17T00:02:50.959Z,74342
2015-12-17T00:03:03.318Z,74343
2015-12-17T00:03:15.693Z,74345
2015-12-17T00:03:28.052Z,74346
2015-12-17T00:03:40.396Z,74346
2015-12-17T00:03:52.758Z,74346
2015-12-17T00:04:05.164Z,74346
2015-12-17T00:04:17.523Z,74341
2015-12-17T00:04:29.898Z,74343
2015-12-17T00:04:42.258Z,74341
2015-12-17T00:04:54.636Z,74338
2015-12-17T00:05:07.011Z,74336
2015-12-17T00:05:19.386Z,74341
2015-12-17T00:05:31.761Z,74340
2015-12-17T00:05:44.151Z,74340
2015-12-17T00:05:56.560Z,74345
2015-12-17T00:06:08.935Z,74344
2015-12-17T00:06:21.310Z,74342
2015-12-17T00:06:33.701Z,74339
2015-12-17T00:06:46.062Z,74340
2015-12-17T00:06:58.406Z,74341
2015-12-17T00:07:10.766Z,74340
2015-12-17T00:07:23.125Z,74339
2015-12-17T00:07:35.484Z,74341
2015-12-17T00:07:47.847Z,74339
2015-12-17T00:08:00.206Z,74336
2015-12-17T00:08:12.565Z,74341
2015-12-17T00:08:24.925Z,74340
2015-12-17T00:08:37.269Z,74342
2015-12-17T00:08:49.630Z,74342
2015-12-17T00:09:01.989Z,74340
2015-12-17T00:09:14.380Z,74338
2015-12-17T00:09:26.755Z,74338
2015-12-17T00:09:39.146Z,74342
2015-12-17T00:09:51.525Z,74339
2015-12-17T00:10:03.884Z,74338
2015-12-17T00:10:16.243Z,74336
2015-12-17T00:10:28.603Z,74337
2015-12-17T00:10:40.962Z,74341
2015-12-17T00:10:53.323Z,74341
2015-12-17T00:11:05.683Z,74334
2015-12-17T00:11:18.042Z,74332
2015-12-17T00:11:30.402Z,74327
2015-12-17T00:11:42.761Z,74324
2015-12-17T00:11:55.123Z,74325
2015-12-17T00:12:07.483Z,74329
2015-12-17T00:12:19.858Z,74331
2015-12-17T00:12:32.233Z,74332
2015-12-17T00:12:44.608Z,74333
2015-12-17T00:12:56.986Z,74334
2015-12-17T00:13:09.376Z,74335
2015-12-17T00:13:21.767Z,74335
2015-12-17T00:13:34.158Z,74334
2015-12-17T00:13:46.533Z,74335
2015-12-17T00:13:58.941Z,74334
2015-12-17T00:14:11.285Z,74336
2015-12-17T00:14:23.644Z,74331
2015-12-17T00:14:36.003Z,74333
2015-12-17T00:14:48.366Z,74334
2015-12-17T00:15:00.725Z,74329
2015-12-17T00:15:13.084Z,74331
2015-12-17T00:15:25.444Z,74333
2015-12-17T00:15:37.803Z,74338
2015-12-17T00:15:50.181Z,74339
2015-12-17T00:16:02.541Z,74331
2015-12-17T00:16:14.900Z,74331
2015-12-17T00:16:27.259Z,74331
2015-12-17T00:16:39.603Z,74329
2015-12-17T00:16:51.996Z,74327
2015-12-17T00:17:04.355Z,74330
2015-12-17T00:17:16.730Z,74329
2015-12-17T00:17:29.089Z,74327
2015-12-17T00:17:41.464Z,74324
2015-12-17T00:17:53.155Z,74322
2015-12-17T00:18:05.530Z,74331
2015-12-17T00:18:17.905Z,74327
2015-12-17T00:18:30.311Z,74329
2015-12-17T00:18:42.686Z,74326
2015-12-17T00:18:55.048Z,74325
2015-12-17T00:19:07.407Z,74331
2015-12-17T00:19:19.766Z,74330
2015-12-17T00:19:32.110Z,74333
2015-12-17T00:19:44.469Z,74333
2015-12-17T00:19:56.832Z,74333
2015-12-17T00:20:09.191Z,74334
2015-12-17T00:20:21.551Z,74334
2015-12-17T00:20:33.910Z,74332
2015-12-17T00:20:46.269Z,74334
2015-12-17T00:20:58.632Z,74338
2015-12-17T00:21:10.835Z,74339
2015-12-17T00:21:22.491Z,74331
2015-12-17T00:21:34.866Z,74327
2015-12-17T00:21:47.241Z,74322
2015-12-17T00:21:59.619Z,74324
2015-12-17T00:22:12.010Z,74320
2015-12-17T00:22:24.385Z,74325
2015-12-17T00:22:36.775Z,74323
2015-12-17T00:22:49.166Z,74322
2015-12-17T00:23:01.512Z,74319
2015-12-17T00:23:13.871Z,74318
2015-12-17T00:23:26.230Z,74320
2015-12-17T00:23:38.590Z,74321
2015-12-17T00:23:50.949Z,74321
2015-12-17T00:24:03.312Z,74324
2015-12-17T00:24:15.655Z,74329
2015-12-17T00:24:28.015Z,74329
2015-12-17T00:24:40.390Z,74327
2015-12-17T00:24:52.765Z,74333
2015-12-17T00:25:05.127Z,74334
2015-12-17T00:25:17.486Z,74336
2015-12-17T00:25:29.846Z,74335
2015-12-17T00:25:42.221Z,74333
2015-12-17T00:25:54.580Z,74332
2015-12-17T00:26:06.943Z,74330
2015-12-17T00:26:19.333Z,74329
2015-12-17T00:26:31.724Z,74325
2015-12-17T00:26:44.099Z,74329
2015-12-17T00:26:56.474Z,74327
2015-12-17T00:27:08.883Z,74327
2015-12-17T00:27:21.274Z,74326
2015-12-17T00:27:33.664Z,74326
2015-12-17T00:27:46.024Z,74333
2015-12-17T00:27:58.367Z,74336
2015-12-17T00:28:10.713Z,74338
2015-12-17T00:28:23.073Z,74335
2015-12-17T00:28:35.432Z,74336
2015-12-17T00:28:47.791Z,74342
2015-12-17T00:29:00.151Z,74341
2015-12-17T00:29:12.513Z,74338
2015-12-17T00:29:24.888Z,74338
2015-12-17T00:29:37.247Z,74337
2015-12-17T00:29:49.591Z,74335
2015-12-17T00:30:01.969Z,74331
2015-12-17T00:30:14.188Z,74324
2015-12-17T00:30:25.938Z,74328
2015-12-17T00:30:38.001Z,74333
2015-12-17T00:30:50.064Z,74334
2015-12-17T00:31:02.114Z,74335
2015-12-17T00:31:14.379Z,74337
2015-12-17T00:31:26.770Z,74340
2015-12-17T00:31:39.051Z,74340
2015-12-17T00:31:51.473Z,74331
2015-12-17T00:32:03.881Z,74334
2015-12-17T00:32:16.269Z,74338
2015-12-17T00:32:28.535Z,74331
2015-12-17T00:32:40.754Z,74335
2015-12-17T00:32:53.113Z,74331
2015-12-17T00:33:04.757Z,74332
2015-12-17T00:33:17.100Z,74332
2015-12-17T00:33:28.757Z,74334
2015-12-17T00:33:41.132Z,74334
2015-12-17T00:33:53.491Z,74335
2015-12-17T00:34:05.853Z,74331
2015-12-17T00:34:18.213Z,74329
2015-12-17T00:34:30.572Z,74328
2015-12-17T00:34:42.931Z,74328
2015-12-17T00:34:55.291Z,74332
2015-12-17T00:35:07.652Z,74331
2015-12-17T00:35:20.027Z,74328
2015-12-17T00:35:32.402Z,74331
2015-12-17T00:35:44.058Z,74336
2015-12-17T00:35:56.449Z,74338
2015-12-17T00:36:08.843Z,74336
2015-12-17T00:36:21.218Z,74329
2015-12-17T00:36:33.608Z,74329
2015-12-17T00:36:45.983Z,74330
2015-12-17T00:36:58.374Z,74325
2015-12-17T00:37:10.736Z,74327
2015-12-17T00:37:23.111Z,74324
2015-12-17T00:37:35.455Z,74332
2015-12-17T00:37:47.814Z,74334
2015-12-17T00:38:00.174Z,74328
2015-12-17T00:38:12.535Z,74328
2015-12-17T00:38:24.895Z,74328
2015-12-17T00:38:37.254Z,74330
2015-12-17T00:38:49.613Z,74328
2015-12-17T00:39:01.973Z,74327
2015-12-17T00:39:14.351Z,74324
2015-12-17T00:39:26.694Z,74329
2015-12-17T00:39:39.054Z,74324
2015-12-17T00:39:51.413Z,74325
2015-12-17T00:40:03.788Z,74319
2015-12-17T00:40:16.151Z,74320
2015-12-17T00:40:28.526Z,74326
2015-12-17T00:40:40.901Z,74326
2015-12-17T00:40:53.276Z,74330
2015-12-17T00:41:05.666Z,74335
2015-12-17T00:41:18.060Z,74332
2015-12-17T00:41:30.435Z,74335
2015-12-17T00:41:42.825Z,74332
2015-12-17T00:41:55.216Z,74334
2015-12-17T00:42:07.591Z,74335
2015-12-17T00:42:19.953Z,74329
2015-12-17T00:42:32.313Z,74335
2015-12-17T00:42:44.672Z,74330
2015-12-17T00:42:57.032Z,74328
2015-12-17T00:43:09.375Z,74333
2015-12-17T00:43:21.034Z,74331
2015-12-17T00:43:33.377Z,74324
2015-12-17T00:43:45.737Z,74327
2015-12-17T00:43:58.112Z,74323
2015-12-17T00:44:10.471Z,74330
2015-12-17T00:44:22.833Z,74325
2015-12-17T00:44:35.193Z,74328
2015-12-17T00:44:47.552Z,74330
2015-12-17T00:44:59.927Z,74325
2015-12-17T00:45:12.302Z,74329
2015-12-17T00:45:24.679Z,74331
2015-12-17T00:45:37.070Z,74325
2015-12-17T00:45:49.445Z,74323
2015-12-17T00:46:01.820Z,74320
2015-12-17T00:46:14.210Z,74327
2015-12-17T00:46:26.588Z,74329
2015-12-17T00:46:38.979Z,74330
2015-12-17T00:46:51.385Z,74333
2015-12-17T00:47:03.776Z,74337
2015-12-17T00:47:16.154Z,74344
2015-12-17T00:47:28.513Z,74343
2015-12-17T00:47:40.873Z,74334
2015-12-17T00:47:53.216Z,74334
2015-12-17T00:48:05.576Z,74332
2015-12-17T00:48:17.938Z,74333
2015-12-17T00:48:30.298Z,74330
2015-12-17T00:48:42.657Z,74329
2015-12-17T00:48:55.001Z,74327
2015-12-17T00:49:07.360Z,74336
2015-12-17T00:49:19.722Z,74337
2015-12-17T00:49:32.082Z,74343
2015-12-17T00:49:44.441Z,74346
2015-12-17T00:49:56.801Z,74341
2015-12-17T00:50:09.176Z,74341
2015-12-17T00:50:21.554Z,74345
2015-12-17T00:50:33.913Z,74339
2015-12-17T00:50:46.288Z,74347
2015-12-17T00:50:58.679Z,74342
2015-12-17T00:51:11.069Z,74349
2015-12-17T00:51:23.446Z,74352
2015-12-17T00:51:35.837Z,74349
2015-12-17T00:51:48.196Z,74349
2015-12-17T00:52:00.556Z,74351
2015-12-17T00:52:12.915Z,74351
2015-12-17T00:52:25.277Z,74354
2015-12-17T00:52:37.621Z,74348
2015-12-17T00:52:49.277Z,74351
2015-12-17T00:53:01.652Z,74357
2015-12-17T00:53:14.012Z,74360
2015-12-17T00:53:26.358Z,74360
2015-12-17T00:53:38.733Z,74352
2015-12-17T00:53:51.093Z,74344
2015-12-17T00:54:03.452Z,74342
2015-12-17T00:54:15.827Z,74338
2015-12-17T00:54:28.189Z,74339
2015-12-17T00:54:40.564Z,74337
2015-12-17T00:54:52.220Z,74336
2015-12-17T00:55:04.423Z,74342
2015-12-17T00:55:16.814Z,74346
2015-12-17T00:55:29.207Z,74335
2015-12-17T00:55:41.598Z,74338
2015-12-17T00:55:53.973Z,74331
2015-12-17T00:56:06.363Z,74327
2015-12-17T00:56:18.754Z,74331
2015-12-17T00:56:31.131Z,74332
2015-12-17T00:56:43.490Z,74335
2015-12-17T00:56:55.850Z,74337
2015-12-17T00:57:08.209Z,74336
2015-12-17T00:57:20.569Z,74340
2015-12-17T00:57:32.932Z,74336
2015-12-17T00:57:45.276Z,74338
2015-12-17T00:57:57.619Z,74340
2015-12-17T00:58:09.979Z,74337
2015-12-17T00:58:22.338Z,74336
2015-12-17T00:58:34.700Z,74331
2015-12-17T00:58:47.043Z,74323
2015-12-17T00:58:59.403Z,74324
2015-12-17T00:59:11.043Z,74324
2015-12-17T00:59:23.418Z,74323
2015-12-17T00:59:35.796Z,74329
2015-12-17T00:59:48.156Z,74325
2015-12-17T00:59:59.828Z,74322
2015-12-17T01:00:12.218Z,74330
2015-12-17T01:00:24.593Z,74329
2015-12-17T01:00:36.986Z,74333
2015-12-17T01:00:49.361Z,74338
2015-12-17T01:01:01.767Z,74339
2015-12-17T01:01:14.158Z,74345
2015-12-17T01:01:26.533Z,74342
2015-12-17T01:01:38.895Z,74343
2015-12-17T01:01:51.254Z,74344
2015-12-17T01:02:03.614Z,74336
2015-12-17T01:02:15.973Z,74331
2015-12-17T01:02:28.333Z,74335
2015-12-17T01:02:40.679Z,74336
2015-12-17T01:02:53.039Z,74340
2015-12-17T01:03:05.382Z,74342
2015-12-17T01:03:17.742Z,74341
2015-12-17T01:03:30.103Z,74339
2015-12-17T01:03:42.463Z,74337
2015-12-17T01:03:54.822Z,74333
2015-12-17T01:04:07.181Z,74332
2015-12-17T01:04:19.556Z,74331
2015-12-17T01:04:31.935Z,74336
2015-12-17T01:04:44.295Z,74332
2015-12-17T01:04:56.670Z,74330
2015-12-17T01:05:09.076Z,74335
2015-12-17T01:05:21.482Z,74334
2015-12-17T01:05:33.876Z,74334
2015-12-17T01:05:46.251Z,74334
2015-12-17T01:05:58.657Z,74328
2015-12-17T01:06:11.048Z,74330
2015-12-17T01:06:23.423Z,74328
2015-12-17T01:06:35.800Z,74324
2015-12-17T01:06:48.159Z,74328
2015-12-17T01:07:00.518Z,74328
2015-12-17T01:07:12.878Z,74326
2015-12-17T01:07:25.237Z,74333
2015-12-17T01:07:37.600Z,74329
2015-12-17T01:07:49.959Z,74331
2015-12-17T01:08:02.318Z,74330
2015-12-17T01:08:14.678Z,74332
2015-12-17T01:08:27.037Z,74334
2015-12-17T01:08:39.398Z,74330
2015-12-17T01:08:51.758Z,74330
2015-12-17T01:09:04.117Z,74325
2015-12-17T01:09:16.492Z,74324
2015-12-17T01:09:28.852Z,74322
2015-12-17T01:09:41.230Z,74319
2015-12-17T01:09:53.605Z,74317
2015-12-17T01:10:05.980Z,74320
2015-12-17T01:10:18.370Z,74321
2015-12-17T01:10:30.761Z,74325
2015-12-17T01:10:43.139Z,74328
2015-12-17T01:10:55.514Z,74322
2015-12-17T01:11:07.873Z,74326
2015-12-17T01:11:20.233Z,74323
2015-12-17T01:11:32.576Z,74322
2015-12-17T01:11:44.939Z,74325
2015-12-17T01:11:57.298Z,74322
2015-12-17T01:12:09.642Z,74320
2015-12-17T01:12:22.001Z,74319
2015-12-17T01:12:34.361Z,74323
2015-12-17T01:12:46.706Z,74325
2015-12-17T01:12:59.066Z,74329
2015-12-17T01:13:11.425Z,74334
2015-12-17T01:13:23.769Z,74331
2015-12-17T01:13:36.144Z,74325
2015-12-17T01:13:48.522Z,74323
2015-12-17T01:14:00.881Z,74320
2015-12-17T01:14:13.256Z,74328
2015-12-17T01:14:25.631Z,74333
2015-12-17T01:14:38.022Z,74339
2015-12-17T01:14:50.399Z,74342
2015-12-17T01:15:02.774Z,74342
2015-12-17T01:15:15.164Z,74342
2015-12-17T01:15:27.524Z,74339
2015-12-17T01:15:39.164Z,74332
2015-12-17T01:15:51.497Z,74331
2015-12-17T01:16:03.153Z,74328
2015-12-17T01:16:15.497Z,74325
2015-12-17T01:16:27.840Z,74325
2015-12-17T01:16:40.200Z,74326
2015-12-17T01:16:52.545Z,74329
2015-12-17T01:17:04.764Z,74333
2015-12-17T01:17:17.124Z,74334
2015-12-17T01:17:29.483Z,74334
2015-12-17T01:17:41.842Z,74330
2015-12-17T01:17:54.205Z,74331
2015-12-17T01:18:06.580Z,74330
2015-12-17T01:18:18.939Z,74324
2015-12-17T01:18:31.314Z,74325
2015-12-17T01:18:43.691Z,74324
2015-12-17T01:18:56.066Z,74332
2015-12-17T01:19:08.457Z,74329
2015-12-17T01:19:20.847Z,74330
2015-12-17T01:19:32.504Z,74332
2015-12-17T01:19:44.913Z,74331
2015-12-17T01:19:57.288Z,74331
2015-12-17T01:20:09.710Z,74333
2015-12-17T01:20:22.053Z,74322
2015-12-17T01:20:34.428Z,74327
2015-12-17T01:20:46.791Z,74326
2015-12-17T01:20:59.135Z,74328
2015-12-17T01:21:11.510Z,74329
2015-12-17T01:21:23.869Z,74330
2015-12-17T01:21:36.213Z,74336
2015-12-17T01:21:48.559Z,74333
2015-12-17T01:22:11.481Z,74335
2015-12-17T01:22:23.731Z,74340
2015-12-17T01:22:36.091Z,74336
2015-12-17T01:22:48.469Z,74338
2015-12-17T01:23:00.828Z,74335
2015-12-17T01:23:13.203Z,74338
2015-12-17T01:23:25.594Z,74342
2015-12-17T01:23:37.969Z,74347
2015-12-17T01:23:50.346Z,74350
2015-12-17T01:24:02.736Z,74344
2015-12-17T01:24:15.143Z,74337
2015-12-17T01:24:27.533Z,74329
2015-12-17T01:24:39.924Z,74320
2015-12-17T01:24:52.286Z,74321
2015-12-17T01:25:04.630Z,74325
2015-12-17T01:25:16.989Z,74335
2015-12-17T01:25:29.349Z,74336
2015-12-17T01:25:41.708Z,74337
2015-12-17T01:25:53.914Z,74330
2015-12-17T01:26:06.274Z,74328
2015-12-17T01:26:18.617Z,74326
2015-12-17T01:26:30.992Z,74330
2015-12-17T01:26:43.352Z,74336
2015-12-17T01:26:55.698Z,74336
2015-12-17T01:27:08.058Z,74333
2015-12-17T01:27:20.433Z,74332
2015-12-17T01:27:32.792Z,74326
2015-12-17T01:27:45.167Z,74328
2015-12-17T01:27:57.544Z,74334
2015-12-17T01:28:09.935Z,74339
2015-12-17T01:28:22.310Z,74333
2015-12-17T01:28:34.700Z,74331
2015-12-17T01:28:47.075Z,74330
2015-12-17T01:28:59.485Z,74324
2015-12-17T01:29:11.875Z,74337
2015-12-17T01:29:24.266Z,74341
2015-12-17T01:29:36.672Z,74347
2015-12-17T01:29:49.016Z,74351
2015-12-17T01:30:01.377Z,74354
2015-12-17T01:30:13.737Z,74355
2015-12-17T01:30:26.096Z,74352
2015-12-17T01:30:38.471Z,74354
2015-12-17T01:30:50.830Z,74353
2015-12-17T01:31:03.193Z,74360
2015-12-17T01:31:15.552Z,74358
2015-12-17T01:31:27.927Z,74347
2015-12-17T01:31:40.287Z,74343
2015-12-17T01:31:52.630Z,74337
2015-12-17T01:32:04.993Z,74327
2015-12-17T01:32:17.352Z,74326
2015-12-17T01:32:29.727Z,74312
2015-12-17T01:32:42.086Z,74303
2015-12-17T01:32:54.461Z,74305
2015-12-17T01:33:06.839Z,74313
2015-12-17T01:33:19.230Z,74323
2015-12-17T01:33:31.464Z,74330
2015-12-17T01:33:43.855Z,74325
2015-12-17T01:33:56.230Z,74321
2015-12-17T01:34:08.639Z,74323
2015-12-17T01:34:21.030Z,74319
2015-12-17T01:34:33.405Z,74310
2015-12-17T01:34:45.811Z,74314
2015-12-17T01:34:58.171Z,74322
2015-12-17T01:35:10.532Z,74327
2015-12-17T01:35:22.891Z,74332
2015-12-17T01:35:35.235Z,74334
2015-12-17T01:35:47.594Z,74339
2015-12-17T01:35:59.954Z,74338
2015-12-17T01:36:12.316Z,74338
2015-12-17T01:36:23.957Z,74336
2015-12-17T01:36:36.316Z,74334
2015-12-17T01:36:48.676Z,74338
2015-12-17T01:37:01.035Z,74337
2015-12-17T01:37:13.241Z,74337
2015-12-17T01:37:25.600Z,74338
2015-12-17T01:37:37.975Z,74337
2015-12-17T01:37:50.335Z,74333
2015-12-17T01:38:02.710Z,74330
2015-12-17T01:38:15.087Z,74334
2015-12-17T01:38:27.462Z,74338
2015-12-17T01:38:39.837Z,74339
2015-12-17T01:38:52.243Z,74338
2015-12-17T01:39:04.637Z,74337
2015-12-17T01:39:17.027Z,74331
2015-12-17T01:39:29.402Z,74331
2015-12-17T01:39:41.824Z,74330
2015-12-17T01:39:54.012Z,74338
2015-12-17T01:40:06.374Z,74339
2015-12-17T01:40:18.733Z,74334
2015-12-17T01:40:31.093Z,74333
2015-12-17T01:40:43.452Z,74336
2015-12-17T01:40:55.812Z,74335
2015-12-17T01:41:08.173Z,74335
2015-12-17T01:41:20.532Z,74338
2015-12-17T01:41:32.892Z,74336
2015-12-17T01:41:45.267Z,74333
2015-12-17T01:41:57.610Z,74333
2015-12-17T01:42:09.973Z,74331
2015-12-17T01:42:22.332Z,74328
2015-12-17T01:42:34.707Z,74328
2015-12-17T01:42:47.082Z,74331
2015-12-17T01:42:59.457Z,74333
2015-12-17T01:43:11.836Z,74339
2015-12-17T01:43:24.227Z,74340
2015-12-17T01:43:36.602Z,74331
2015-12-17T01:43:48.977Z,74333
2015-12-17T01:44:01.367Z,74336
2015-12-17T01:44:13.776Z,74333
2015-12-17T01:44:26.151Z,74331
2015-12-17T01:44:38.541Z,74321
2015-12-17T01:44:50.916Z,74323
2015-12-17T01:45:03.276Z,74326
2015-12-17T01:45:15.654Z,74330
2015-12-17T01:45:27.997Z,74329
2015-12-17T01:45:40.357Z,74330
2015-12-17T01:45:52.716Z,74332
2015-12-17T01:46:05.060Z,74334
2015-12-17T01:46:17.422Z,74337
2015-12-17T01:46:29.782Z,74339
2015-12-17T01:46:42.157Z,74338
2015-12-17T01:46:54.516Z,74339
2015-12-17T01:47:06.875Z,74343
2015-12-17T01:47:19.237Z,74344
2015-12-17T01:47:31.612Z,74343
2015-12-17T01:47:43.987Z,74346
2015-12-17T01:47:56.346Z,74342
2015-12-17T01:48:08.721Z,74336
2015-12-17T01:48:21.099Z,74335
2015-12-17T01:48:33.490Z,74340
2015-12-17T01:48:45.896Z,74334
2015-12-17T01:48:58.271Z,74336
2015-12-17T01:49:10.646Z,74333
2015-12-17T01:49:23.040Z,74327
2015-12-17T01:49:35.446Z,74324
2015-12-17T01:49:47.868Z,74313
2015-12-17T01:50:00.212Z,74316
2015-12-17T01:50:12.571Z,74313
2015-12-17T01:50:24.933Z,74318
2015-12-17T01:50:37.293Z,74323
2015-12-17T01:50:49.652Z,74331
2015-12-17T01:51:01.996Z,74339
2015-12-17T01:51:14.355Z,74337
2015-12-17T01:51:26.717Z,74336
2015-12-17T01:51:39.092Z,74334
2015-12-17T01:51:51.435Z,74333
2015-12-17T01:52:03.795Z,74338
2015-12-17T01:52:16.154Z,74341
2015-12-17T01:52:28.516Z,74349
2015-12-17T01:52:40.876Z,74347
2015-12-17T01:52:53.251Z,74347
2015-12-17T01:53:05.610Z,74343
2015-12-17T01:53:17.985Z,74343
2015-12-17T01:53:30.363Z,74340
2015-12-17T01:53:42.754Z,74332
2015-12-17T01:53:55.129Z,74330
2015-12-17T01:54:07.519Z,74322
2015-12-17T01:54:19.879Z,74326
2015-12-17T01:54:32.241Z,74330
2015-12-17T01:54:44.585Z,74335
2015-12-17T01:54:56.944Z,74337
2015-12-17T01:55:09.304Z,74333
2015-12-17T01:55:21.663Z,74332
2015-12-17T01:55:34.024Z,74330
2015-12-17T01:55:46.384Z,74337
2015-12-17T01:55:58.743Z,74341
2015-12-17T01:56:11.103Z,74339
2015-12-17T01:56:23.462Z,74336
2015-12-17T01:56:35.825Z,74342
2015-12-17T01:56:48.185Z,74345
2015-12-17T01:57:00.544Z,74339
2015-12-17T01:57:12.935Z,74326
2015-12-17T01:57:25.294Z,74327
2015-12-17T01:57:37.655Z,74333
2015-12-17T01:57:50.046Z,74334
2015-12-17T01:58:02.421Z,74330
2015-12-17T01:58:14.812Z,74329
2015-12-17T01:58:27.249Z,74331
2015-12-17T01:58:39.612Z,74329
2015-12-17T01:58:51.987Z,74335
2015-12-17T01:59:04.362Z,74327
2015-12-17T01:59:16.705Z,74324
2015-12-17T01:59:29.065Z,74324
2015-12-17T01:59:41.411Z,74331
2015-12-17T01:59:53.771Z,74331
2015-12-17T02:00:06.130Z,74332
2015-12-17T02:00:18.490Z,74332
2015-12-17T02:00:30.833Z,74334
2015-12-17T02:00:43.195Z,74338
2015-12-17T02:00:55.538Z,74341
2015-12-17T02:01:07.898Z,74334
2015-12-17T02:01:20.257Z,74330
2015-12-17T02:01:32.617Z,74331
2015-12-17T02:01:44.995Z,74335
2015-12-17T02:01:57.370Z,74337
2015-12-17T02:02:09.745Z,74333
2015-12-17T02:02:22.120Z,74331
2015-12-17T02:02:34.495Z,74332
2015-12-17T02:02:46.888Z,74334
2015-12-17T02:02:59.263Z,74332
2015-12-17T02:03:11.654Z,74327
2015-12-17T02:03:24.029Z,74331
2015-12-17T02:03:36.419Z,74334
2015-12-17T02:03:48.829Z,74340
2015-12-17T02:04:01.188Z,74339
2015-12-17T02:04:13.547Z,74339
2015-12-17T02:04:25.188Z,74345
2015-12-17T02:04:37.547Z,74340
2015-12-17T02:04:49.909Z,74336
2015-12-17T02:05:02.268Z,74334
2015-12-17T02:05:14.628Z,74330
2015-12-17T02:05:26.971Z,74327
2015-12-17T02:05:39.346Z,74328
2015-12-17T02:05:51.693Z,74323
2015-12-17T02:06:04.052Z,74326
2015-12-17T02:06:16.412Z,74330
2015-12-17T02:06:28.771Z,74329
2015-12-17T02:06:41.131Z,74330
2015-12-17T02:06:53.508Z,74330
2015-12-17T02:07:05.867Z,74334
2015-12-17T02:07:18.242Z,74340
2015-12-17T02:07:30.617Z,74340
2015-12-17T02:07:43.008Z,74339
2015-12-17T02:07:55.401Z,74340
2015-12-17T02:08:07.776Z,74342
2015-12-17T02:08:20.167Z,74340
2015-12-17T02:08:32.573Z,74341
2015-12-17T02:08:44.964Z,74341
2015-12-17T02:08:57.310Z,74340
2015-12-17T02:09:09.670Z,74340
2015-12-17T02:09:22.029Z,74338
2015-12-17T02:09:34.373Z,74340
2015-12-17T02:09:46.732Z,74343
2015-12-17T02:09:59.095Z,74338
2015-12-17T02:10:11.454Z,74336
2015-12-17T02:10:23.813Z,74341
2015-12-17T02:10:36.188Z,74339
2015-12-17T02:10:48.548Z,74345
2015-12-17T02:11:00.894Z,74338
2015-12-17T02:11:13.253Z,74337
2015-12-17T02:11:25.612Z,74341
2015-12-17T02:11:37.972Z,74336
2015-12-17T02:11:50.362Z,74339
2015-12-17T02:12:02.725Z,74343
2015-12-17T02:12:15.100Z,74342
2015-12-17T02:12:27.490Z,74342
2015-12-17T02:12:39.865Z,74336
2015-12-17T02:12:52.256Z,74338
2015-12-17T02:13:03.947Z,74342
2015-12-17T02:13:15.635Z,74340
2015-12-17T02:13:28.010Z,74341
2015-12-17T02:13:40.401Z,74340
2015-12-17T02:13:52.760Z,74337
2015-12-17T02:14:05.215Z,74336
2015-12-17T02:14:17.574Z,74341
2015-12-17T02:14:29.934Z,74336
2015-12-17T02:14:42.293Z,74330
2015-12-17T02:14:54.653Z,74330
2015-12-17T02:15:07.015Z,74327
2015-12-17T02:15:19.359Z,74328
2015-12-17T02:15:31.734Z,74331
2015-12-17T02:15:44.077Z,74324
2015-12-17T02:15:56.437Z,74327
2015-12-17T02:16:08.799Z,74324
2015-12-17T02:16:21.174Z,74323
2015-12-17T02:16:33.534Z,74313
2015-12-17T02:16:45.909Z,74316
2015-12-17T02:16:58.268Z,74318
2015-12-17T02:17:10.646Z,74316
2015-12-17T02:17:23.037Z,74318
2015-12-17T02:17:35.427Z,74326
2015-12-17T02:17:47.802Z,74323
2015-12-17T02:18:00.193Z,74313
2015-12-17T02:18:12.585Z,74314
2015-12-17T02:18:24.992Z,74312
2015-12-17T02:18:37.367Z,74316
2015-12-17T02:18:49.742Z,74314
2015-12-17T02:19:02.085Z,74320
2015-12-17T02:19:14.463Z,74327
2015-12-17T02:19:26.823Z,74324
2015-12-17T02:19:39.167Z,74316
2015-12-17T02:19:51.526Z,74316
2015-12-17T02:20:03.885Z,74316
2015-12-17T02:20:16.248Z,74309
2015-12-17T02:20:28.591Z,74305
2015-12-17T02:20:40.966Z,74310
2015-12-17T02:20:53.326Z,74309
2015-12-17T02:21:05.670Z,74311
2015-12-17T02:21:18.031Z,74313
2015-12-17T02:21:30.406Z,74313
2015-12-17T02:21:42.765Z,74312
2015-12-17T02:21:55.140Z,74315
2015-12-17T02:22:07.500Z,74319
2015-12-17T02:22:19.893Z,74319
2015-12-17T02:22:31.565Z,74326
2015-12-17T02:22:43.956Z,74322
2015-12-17T02:22:56.346Z,74315
2015-12-17T02:23:08.737Z,74305
2015-12-17T02:23:21.131Z,74302
2015-12-17T02:23:33.521Z,74300
2015-12-17T02:23:45.896Z,74302
2015-12-17T02:23:58.256Z,74302
2015-12-17T02:24:09.896Z,74300
2015-12-17T02:24:22.259Z,74292
2015-12-17T02:24:34.618Z,74288
2015-12-17T02:24:46.962Z,74289
2015-12-17T02:24:59.321Z,74267
2015-12-17T02:25:11.681Z,74267
2015-12-17T02:25:24.026Z,74288
2015-12-17T02:25:36.386Z,74295
2015-12-17T02:25:48.729Z,74304
2015-12-17T02:26:01.089Z,74306
2015-12-17T02:26:13.451Z,74311
2015-12-17T02:26:25.826Z,74314
2015-12-17T02:26:38.186Z,74311
2015-12-17T02:26:50.561Z,74312
2015-12-17T02:27:02.920Z,74306
2015-12-17T02:27:15.314Z,74299
2015-12-17T02:27:27.720Z,74308
2015-12-17T02:27:40.110Z,74311
2015-12-17T02:27:52.485Z,74317
2015-12-17T02:28:04.907Z,74316
2015-12-17T02:28:17.301Z,74318
2015-12-17T02:28:29.707Z,74319
2015-12-17T02:28:42.082Z,74318
2015-12-17T02:28:54.442Z,74310
2015-12-17T02:29:06.801Z,74305
2015-12-17T02:29:19.163Z,74305
2015-12-17T02:29:31.523Z,74306
2015-12-17T02:29:43.866Z,74306
2015-12-17T02:29:56.241Z,74299
2015-12-17T02:30:08.601Z,74292
2015-12-17T02:30:20.962Z,74287
2015-12-17T02:30:33.368Z,74291
2015-12-17T02:30:45.775Z,74298
2015-12-17T02:30:58.118Z,74306
2015-12-17T02:31:10.478Z,74313
2015-12-17T02:31:22.870Z,74316
2015-12-17T02:31:35.230Z,74320
2015-12-17T02:31:47.605Z,74325
2015-12-17T02:32:00.027Z,74328
2015-12-17T02:32:12.417Z,74324
2015-12-17T02:32:24.812Z,74318
2015-12-17T02:32:37.203Z,74308
2015-12-17T02:32:49.593Z,74314
2015-12-17T02:33:01.984Z,74314
2015-12-17T02:33:14.390Z,74310
2015-12-17T02:33:26.751Z,74310
2015-12-17T02:33:39.111Z,74313
2015-12-17T02:33:51.470Z,74311
2015-12-17T02:34:03.830Z,74310
2015-12-17T02:34:16.205Z,74315
2015-12-17T02:34:28.551Z,74318
2015-12-17T02:34:40.895Z,74325
2015-12-17T02:34:53.254Z,74326
2015-12-17T02:35:05.614Z,74326
2015-12-17T02:35:17.942Z,74322
2015-12-17T02:35:30.289Z,74317
2015-12-17T02:35:42.632Z,74319
2015-12-17T02:35:54.992Z,74326
2015-12-17T02:36:07.367Z,74326
2015-12-17T02:36:19.742Z,74315
2015-12-17T02:36:32.120Z,74310
2015-12-17T02:36:44.495Z,74308
2015-12-17T02:36:56.885Z,74307
2015-12-17T02:37:09.260Z,74308
2015-12-17T02:37:21.651Z,74309
2015-12-17T02:37:34.045Z,74315
2015-12-17T02:37:46.420Z,74322
2015-12-17T02:37:58.810Z,74327
2015-12-17T02:38:11.201Z,74324
2015-12-17T02:38:23.592Z,74325
2015-12-17T02:38:36.015Z,74323
2015-12-17T02:38:48.375Z,74326
2015-12-17T02:39:00.719Z,74328
2015-12-17T02:39:13.078Z,74329